sensor_id;sensor_type;location;lat;lon;timestamp;temperature;humidity
14985;DHT22;7588;62.368;25.902;2023-07-24T00:01:52;13.20;99.90
14985;DHT22;7588;62.368;25.902;2023-07-24T00:04:18;13.30;99.90
14985;DHT22;7588;62.368;25.902;2023-07-24T00:06:44;13.20;99.90
14985;DHT22;7588;62.368;25.902;2023-07-24T00:09:10;13.20;99.90
14985;DHT22;7588;62.368;25.902;2023-07-24T00:11:35;13.20;99.90
14985;DHT22;7588;62.368;25.902;2023-07-24T00:14:01;13.20;99.90
14985;DHT22;7588;62.368;25.902;2023-07-24T00:16:27;13.20;99.90
14985;DHT22;7588;62.368;25.902;2023-07-24T00:18:52;13.20;99.90
14985;DHT22;7588;62.368;25.902;2023-07-24T00:21:18;13.20;99.90
14985;DHT22;7588;62.368;25.902;2023-07-24T00:23:44;13.10;99.90
14985;DHT22;7588;62.368;25.902;2023-07-24T00:26:09;13.10;99.90
14985;DHT22;7588;62.368;25.902;2023-07-24T00:28:35;13.10;99.90
14985;DHT22;7588;62.368;25.902;2023-07-24T00:31:00;13.10;99.90
14985;DHT22;7588;62.368;25.902;2023-07-24T00:33:26;13.00;99.90
14985;DHT22;7588;62.368;25.902;2023-07-24T00:35:56;13.00;99.90
14985;DHT22;7588;62.368;25.902;2023-07-24T00:38:23;13.00;99.90
14985;DHT22;7588;62.368;25.902;2023-07-24T00:40:48;13.00;99.90
14985;DHT22;7588;62.368;25.902;2023-07-24T00:43:15;13.00;99.90
14985;DHT22;7588;62.368;25.902;2023-07-24T00:45:41;13.00;99.90
14985;DHT22;7588;62.368;25.902;2023-07-24T00:48:07;13.00;99.90
14985;DHT22;7588;62.368;25.902;2023-07-24T00:50:33;13.00;99.90
14985;DHT22;7588;62.368;25.902;2023-07-24T00:52:59;13.00;99.90
14985;DHT22;7588;62.368;25.902;2023-07-24T00:55:25;13.00;99.90
14985;DHT22;7588;62.368;25.902;2023-07-24T00:57:51;13.00;99.90
14985;DHT22;7588;62.368;25.902;2023-07-24T01:00:17;13.10;99.90
14985;DHT22;7588;62.368;25.902;2023-07-24T01:02:43;13.00;99.90
14985;DHT22;7588;62.368;25.902;2023-07-24T01:05:12;13.00;99.90
14985;DHT22;7588;62.368;25.902;2023-07-24T01:07:38;12.90;99.90
14985;DHT22;7588;62.368;25.902;2023-07-24T01:10:04;13.00;99.90
14985;DHT22;7588;62.368;25.902;2023-07-24T01:13:09;13.00;99.90
14985;DHT22;7588;62.368;25.902;2023-07-24T01:15:32;13.00;99.90
14985;DHT22;7588;62.368;25.902;2023-07-24T01:18:08;13.00;99.90
14985;DHT22;7588;62.368;25.902;2023-07-24T01:20:36;13.00;99.90
14985;DHT22;7588;62.368;25.902;2023-07-24T01:26:00;13.00;99.90
14985;DHT22;7588;62.368;25.902;2023-07-24T01:28:26;13.00;99.90
14985;DHT22;7588;62.368;25.902;2023-07-24T01:30:52;13.00;99.90
14985;DHT22;7588;62.368;25.902;2023-07-24T01:33:19;13.00;99.90
14985;DHT22;7588;62.368;25.902;2023-07-24T01:35:45;13.00;99.90
14985;DHT22;7588;62.368;25.902;2023-07-24T01:38:14;13.00;99.90
14985;DHT22;7588;62.368;25.902;2023-07-24T01:40:40;13.10;99.90
14985;DHT22;7588;62.368;25.902;2023-07-24T01:43:07;13.10;99.90
14985;DHT22;7588;62.368;25.902;2023-07-24T01:45:32;13.20;99.90
14985;DHT22;7588;62.368;25.902;2023-07-24T01:47:58;13.20;99.90
14985;DHT22;7588;62.368;25.902;2023-07-24T01:50:24;13.20;99.90
14985;DHT22;7588;62.368;25.902;2023-07-24T01:52:50;13.20;99.90
14985;DHT22;7588;62.368;25.902;2023-07-24T01:55:16;13.30;99.90
14985;DHT22;7588;62.368;25.902;2023-07-24T01:57:41;13.40;99.90
14985;DHT22;7588;62.368;25.902;2023-07-24T02:00:07;13.40;99.90
14985;DHT22;7588;62.368;25.902;2023-07-24T02:02:33;13.40;99.90
14985;DHT22;7588;62.368;25.902;2023-07-24T02:04:59;13.40;99.90
14985;DHT22;7588;62.368;25.902;2023-07-24T02:07:24;13.40;99.90
14985;DHT22;7588;62.368;25.902;2023-07-24T02:09:50;13.40;99.90
14985;DHT22;7588;62.368;25.902;2023-07-24T02:12:16;13.40;99.90
14985;DHT22;7588;62.368;25.902;2023-07-24T02:14:41;13.40;99.90
14985;DHT22;7588;62.368;25.902;2023-07-24T02:17:07;13.40;99.90
14985;DHT22;7588;62.368;25.902;2023-07-24T02:19:33;13.40;99.90
14985;DHT22;7588;62.368;25.902;2023-07-24T02:21:58;13.50;99.90
14985;DHT22;7588;62.368;25.902;2023-07-24T02:24:24;13.40;99.90
14985;DHT22;7588;62.368;25.902;2023-07-24T02:26:50;13.50;99.90
14985;DHT22;7588;62.368;25.902;2023-07-24T02:29:15;13.50;99.90
14985;DHT22;7588;62.368;25.902;2023-07-24T02:31:41;13.50;99.90
14985;DHT22;7588;62.368;25.902;2023-07-24T02:34:08;13.50;99.90
14985;DHT22;7588;62.368;25.902;2023-07-24T02:36:33;13.50;99.90
14985;DHT22;7588;62.368;25.902;2023-07-24T02:38:59;13.50;99.90
14985;DHT22;7588;62.368;25.902;2023-07-24T02:41:25;13.50;99.90
14985;DHT22;7588;62.368;25.902;2023-07-24T02:43:50;13.50;99.90
14985;DHT22;7588;62.368;25.902;2023-07-24T02:46:16;13.60;99.90
14985;DHT22;7588;62.368;25.902;2023-07-24T02:48:41;13.60;99.90
14985;DHT22;7588;62.368;25.902;2023-07-24T02:51:07;13.60;99.90
14985;DHT22;7588;62.368;25.902;2023-07-24T02:53:33;13.60;99.90
14985;DHT22;7588;62.368;25.902;2023-07-24T02:56:01;13.60;99.90
14985;DHT22;7588;62.368;25.902;2023-07-24T02:58:27;13.60;99.90
14985;DHT22;7588;62.368;25.902;2023-07-24T03:00:53;13.60;99.90
14985;DHT22;7588;62.368;25.902;2023-07-24T03:03:19;13.60;99.90
14985;DHT22;7588;62.368;25.902;2023-07-24T03:05:44;13.70;99.90
14985;DHT22;7588;62.368;25.902;2023-07-24T03:08:10;13.70;99.90
14985;DHT22;7588;62.368;25.902;2023-07-24T03:10:40;13.70;99.90
14985;DHT22;7588;62.368;25.902;2023-07-24T03:13:06;13.80;99.90
14985;DHT22;7588;62.368;25.902;2023-07-24T03:15:31;13.80;99.90
14985;DHT22;7588;62.368;25.902;2023-07-24T03:17:57;13.80;99.90
14985;DHT22;7588;62.368;25.902;2023-07-24T03:20:23;13.70;99.90
14985;DHT22;7588;62.368;25.902;2023-07-24T03:22:48;13.70;99.90
14985;DHT22;7588;62.368;25.902;2023-07-24T03:25:14;13.70;99.90
14985;DHT22;7588;62.368;25.902;2023-07-24T03:27:40;13.70;99.90
14985;DHT22;7588;62.368;25.902;2023-07-24T03:30:06;13.80;99.90
14985;DHT22;7588;62.368;25.902;2023-07-24T03:32:32;13.80;99.90
14985;DHT22;7588;62.368;25.902;2023-07-24T03:34:57;13.90;99.90
14985;DHT22;7588;62.368;25.902;2023-07-24T03:37:23;13.90;99.90
14985;DHT22;7588;62.368;25.902;2023-07-24T03:39:49;14.00;99.90
14985;DHT22;7588;62.368;25.902;2023-07-24T03:42:28;14.00;99.90
14985;DHT22;7588;62.368;25.902;2023-07-24T03:44:54;14.10;99.90
14985;DHT22;7588;62.368;25.902;2023-07-24T03:47:20;14.00;99.90
14985;DHT22;7588;62.368;25.902;2023-07-24T03:49:46;14.10;99.90
14985;DHT22;7588;62.368;25.902;2023-07-24T03:52:12;14.10;99.90
14985;DHT22;7588;62.368;25.902;2023-07-24T03:54:38;14.10;99.90
14985;DHT22;7588;62.368;25.902;2023-07-24T03:57:04;14.10;99.90
14985;DHT22;7588;62.368;25.902;2023-07-24T03:59:30;14.10;99.90
14985;DHT22;7588;62.368;25.902;2023-07-24T04:01:56;14.20;99.90
14985;DHT22;7588;62.368;25.902;2023-07-24T04:04:22;14.20;99.90
14985;DHT22;7588;62.368;25.902;2023-07-24T04:06:48;14.30;99.90
14985;DHT22;7588;62.368;25.902;2023-07-24T04:09:14;14.40;99.90
14985;DHT22;7588;62.368;25.902;2023-07-24T04:11:40;14.50;99.90
14985;DHT22;7588;62.368;25.902;2023-07-24T04:14:06;14.60;99.90
14985;DHT22;7588;62.368;25.902;2023-07-24T04:16:32;14.60;99.90
14985;DHT22;7588;62.368;25.902;2023-07-24T04:18:57;14.70;99.90
14985;DHT22;7588;62.368;25.902;2023-07-24T04:21:23;14.90;99.90
14985;DHT22;7588;62.368;25.902;2023-07-24T04:23:49;14.90;99.90
14985;DHT22;7588;62.368;25.902;2023-07-24T04:26:14;15.00;99.90
14985;DHT22;7588;62.368;25.902;2023-07-24T04:28:40;15.10;99.90
14985;DHT22;7588;62.368;25.902;2023-07-24T04:31:06;15.10;99.90
14985;DHT22;7588;62.368;25.902;2023-07-24T04:33:31;15.20;99.90
14985;DHT22;7588;62.368;25.902;2023-07-24T04:35:57;15.30;99.90
14985;DHT22;7588;62.368;25.902;2023-07-24T04:38:23;15.30;99.90
14985;DHT22;7588;62.368;25.902;2023-07-24T04:40:48;15.30;99.90
14985;DHT22;7588;62.368;25.902;2023-07-24T04:43:14;15.20;99.90
14985;DHT22;7588;62.368;25.902;2023-07-24T04:45:40;15.20;99.90
14985;DHT22;7588;62.368;25.902;2023-07-24T04:48:05;15.20;99.90
14985;DHT22;7588;62.368;25.902;2023-07-24T04:50:31;15.30;99.90
14985;DHT22;7588;62.368;25.902;2023-07-24T04:52:58;15.40;99.90
14985;DHT22;7588;62.368;25.902;2023-07-24T04:55:24;15.60;99.90
14985;DHT22;7588;62.368;25.902;2023-07-24T04:57:50;15.50;99.90
14985;DHT22;7588;62.368;25.902;2023-07-24T05:00:15;15.50;99.90
14985;DHT22;7588;62.368;25.902;2023-07-24T05:02:41;15.60;99.90
14985;DHT22;7588;62.368;25.902;2023-07-24T05:05:07;15.70;99.90
14985;DHT22;7588;62.368;25.902;2023-07-24T05:07:33;15.80;99.90
14985;DHT22;7588;62.368;25.902;2023-07-24T05:09:59;15.80;99.90
14985;DHT22;7588;62.368;25.902;2023-07-24T05:12:25;15.90;99.90
14985;DHT22;7588;62.368;25.902;2023-07-24T05:14:51;15.80;99.90
14985;DHT22;7588;62.368;25.902;2023-07-24T05:17:16;15.90;99.90
14985;DHT22;7588;62.368;25.902;2023-07-24T05:19:42;16.00;99.90
14985;DHT22;7588;62.368;25.902;2023-07-24T05:22:08;16.00;99.90
14985;DHT22;7588;62.368;25.902;2023-07-24T05:24:38;15.90;99.90
14985;DHT22;7588;62.368;25.902;2023-07-24T05:27:05;15.90;99.90
14985;DHT22;7588;62.368;25.902;2023-07-24T05:29:31;16.00;99.90
14985;DHT22;7588;62.368;25.902;2023-07-24T05:31:56;15.90;99.90
14985;DHT22;7588;62.368;25.902;2023-07-24T05:34:23;15.90;99.90
14985;DHT22;7588;62.368;25.902;2023-07-24T05:36:48;15.80;99.90
14985;DHT22;7588;62.368;25.902;2023-07-24T05:39:14;15.80;99.90
14985;DHT22;7588;62.368;25.902;2023-07-24T05:41:40;15.90;99.90
14985;DHT22;7588;62.368;25.902;2023-07-24T05:44:05;16.00;99.90
14985;DHT22;7588;62.368;25.902;2023-07-24T05:46:31;16.00;99.90
14985;DHT22;7588;62.368;25.902;2023-07-24T05:48:56;16.10;99.90
14985;DHT22;7588;62.368;25.902;2023-07-24T05:51:22;16.10;99.90
14985;DHT22;7588;62.368;25.902;2023-07-24T05:53:49;16.20;99.90
14985;DHT22;7588;62.368;25.902;2023-07-24T05:56:14;16.20;99.90
14985;DHT22;7588;62.368;25.902;2023-07-24T05:58:40;16.20;99.90
14985;DHT22;7588;62.368;25.902;2023-07-24T06:01:06;16.20;99.90
14985;DHT22;7588;62.368;25.902;2023-07-24T06:03:33;16.30;99.90
14985;DHT22;7588;62.368;25.902;2023-07-24T06:05:59;16.30;99.90
14985;DHT22;7588;62.368;25.902;2023-07-24T06:08:25;16.40;99.90
14985;DHT22;7588;62.368;25.902;2023-07-24T06:10:51;16.40;99.90
14985;DHT22;7588;62.368;25.902;2023-07-24T06:13:17;16.50;99.90
14985;DHT22;7588;62.368;25.902;2023-07-24T06:15:43;16.50;99.90
14985;DHT22;7588;62.368;25.902;2023-07-24T06:18:09;16.40;99.90
14985;DHT22;7588;62.368;25.902;2023-07-24T06:20:35;16.40;99.90
14985;DHT22;7588;62.368;25.902;2023-07-24T06:23:01;16.50;99.90
14985;DHT22;7588;62.368;25.902;2023-07-24T06:25:29;16.60;99.90
14985;DHT22;7588;62.368;25.902;2023-07-24T06:27:56;16.50;99.90
14985;DHT22;7588;62.368;25.902;2023-07-24T06:30:21;16.50;99.90
14985;DHT22;7588;62.368;25.902;2023-07-24T06:32:47;16.60;99.90
14985;DHT22;7588;62.368;25.902;2023-07-24T06:35:13;16.50;99.90
14985;DHT22;7588;62.368;25.902;2023-07-24T06:37:38;16.60;99.90
14985;DHT22;7588;62.368;25.902;2023-07-24T06:40:06;16.60;99.90
14985;DHT22;7588;62.368;25.902;2023-07-24T06:42:31;16.50;99.90
14985;DHT22;7588;62.368;25.902;2023-07-24T06:44:57;16.40;99.90
14985;DHT22;7588;62.368;25.902;2023-07-24T06:47:23;16.30;99.90
14985;DHT22;7588;62.368;25.902;2023-07-24T06:49:49;16.20;99.90
14985;DHT22;7588;62.368;25.902;2023-07-24T06:52:15;16.20;99.90
14985;DHT22;7588;62.368;25.902;2023-07-24T06:54:41;16.10;99.90
14985;DHT22;7588;62.368;25.902;2023-07-24T06:57:07;16.10;99.90
14985;DHT22;7588;62.368;25.902;2023-07-24T06:59:32;16.10;99.90
14985;DHT22;7588;62.368;25.902;2023-07-24T07:01:58;16.10;99.90
14985;DHT22;7588;62.368;25.902;2023-07-24T07:04:24;16.10;99.90
14985;DHT22;7588;62.368;25.902;2023-07-24T07:06:49;16.10;99.90
14985;DHT22;7588;62.368;25.902;2023-07-24T07:09:15;16.10;99.90
14985;DHT22;7588;62.368;25.902;2023-07-24T07:11:41;16.10;99.90
14985;DHT22;7588;62.368;25.902;2023-07-24T07:14:09;16.00;99.90
14985;DHT22;7588;62.368;25.902;2023-07-24T07:16:34;16.00;99.90
14985;DHT22;7588;62.368;25.902;2023-07-24T07:19:00;16.10;99.90
14985;DHT22;7588;62.368;25.902;2023-07-24T07:21:26;16.00;99.90
14985;DHT22;7588;62.368;25.902;2023-07-24T07:23:52;16.00;99.90
14985;DHT22;7588;62.368;25.902;2023-07-24T07:26:17;15.80;99.90
14985;DHT22;7588;62.368;25.902;2023-07-24T07:28:43;15.70;99.90
14985;DHT22;7588;62.368;25.902;2023-07-24T07:31:10;15.70;99.90
14985;DHT22;7588;62.368;25.902;2023-07-24T07:33:36;15.80;99.90
14985;DHT22;7588;62.368;25.902;2023-07-24T07:36:02;15.80;99.90
14985;DHT22;7588;62.368;25.902;2023-07-24T07:38:29;15.90;99.90
14985;DHT22;7588;62.368;25.902;2023-07-24T07:40:55;15.90;99.90
14985;DHT22;7588;62.368;25.902;2023-07-24T07:43:20;15.90;99.90
14985;DHT22;7588;62.368;25.902;2023-07-24T07:45:46;15.90;99.90
14985;DHT22;7588;62.368;25.902;2023-07-24T07:48:12;15.90;99.90
14985;DHT22;7588;62.368;25.902;2023-07-24T07:50:38;16.00;99.90
14985;DHT22;7588;62.368;25.902;2023-07-24T07:53:03;16.00;99.90
14985;DHT22;7588;62.368;25.902;2023-07-24T07:55:29;16.10;99.90
14985;DHT22;7588;62.368;25.902;2023-07-24T07:57:55;16.20;99.90
14985;DHT22;7588;62.368;25.902;2023-07-24T08:00:21;16.20;99.90
14985;DHT22;7588;62.368;25.902;2023-07-24T08:02:47;16.30;99.90
14985;DHT22;7588;62.368;25.902;2023-07-24T08:05:12;16.30;99.90
14985;DHT22;7588;62.368;25.902;2023-07-24T08:07:38;16.30;99.90
14985;DHT22;7588;62.368;25.902;2023-07-24T08:10:04;16.40;99.90
14985;DHT22;7588;62.368;25.902;2023-07-24T08:12:30;16.30;99.90
14985;DHT22;7588;62.368;25.902;2023-07-24T08:14:56;16.40;99.90
14985;DHT22;7588;62.368;25.902;2023-07-24T08:17:22;16.50;99.90
14985;DHT22;7588;62.368;25.902;2023-07-24T08:19:47;16.60;99.90
14985;DHT22;7588;62.368;25.902;2023-07-24T08:22:13;16.50;99.90
14985;DHT22;7588;62.368;25.902;2023-07-24T08:24:39;16.50;99.90
14985;DHT22;7588;62.368;25.902;2023-07-24T08:27:04;16.50;99.90
14985;DHT22;7588;62.368;25.902;2023-07-24T08:29:30;16.50;99.90
14985;DHT22;7588;62.368;25.902;2023-07-24T08:31:56;16.50;99.90
14985;DHT22;7588;62.368;25.902;2023-07-24T08:34:22;16.60;99.90
14985;DHT22;7588;62.368;25.902;2023-07-24T08:36:47;16.70;99.90
14985;DHT22;7588;62.368;25.902;2023-07-24T08:39:13;16.70;99.90
14985;DHT22;7588;62.368;25.902;2023-07-24T08:41:39;16.70;99.90
14985;DHT22;7588;62.368;25.902;2023-07-24T08:44:08;16.80;99.90
14985;DHT22;7588;62.368;25.902;2023-07-24T08:46:36;16.80;99.90
14985;DHT22;7588;62.368;25.902;2023-07-24T08:49:03;16.80;99.90
14985;DHT22;7588;62.368;25.902;2023-07-24T08:51:29;16.70;99.90
14985;DHT22;7588;62.368;25.902;2023-07-24T08:53:57;16.70;99.90
14985;DHT22;7588;62.368;25.902;2023-07-24T08:56:23;16.50;99.90
14985;DHT22;7588;62.368;25.902;2023-07-24T08:58:49;16.40;99.90
14985;DHT22;7588;62.368;25.902;2023-07-24T09:01:14;16.40;99.90
14985;DHT22;7588;62.368;25.902;2023-07-24T09:03:40;16.40;99.90
14985;DHT22;7588;62.368;25.902;2023-07-24T09:06:06;16.30;99.90
14985;DHT22;7588;62.368;25.902;2023-07-24T09:08:54;16.20;99.90
14985;DHT22;7588;62.368;25.902;2023-07-24T09:11:19;16.20;99.90
14985;DHT22;7588;62.368;25.902;2023-07-24T09:13:45;16.20;99.90
14985;DHT22;7588;62.368;25.902;2023-07-24T09:16:24;16.30;99.90
14985;DHT22;7588;62.368;25.902;2023-07-24T09:18:50;16.40;99.90
14985;DHT22;7588;62.368;25.902;2023-07-24T09:21:27;16.40;99.90
14985;DHT22;7588;62.368;25.902;2023-07-24T09:23:54;16.50;99.90
14985;DHT22;7588;62.368;25.902;2023-07-24T09:26:19;16.50;99.90
14985;DHT22;7588;62.368;25.902;2023-07-24T09:28:52;16.60;99.90
14985;DHT22;7588;62.368;25.902;2023-07-24T09:31:18;16.70;99.90
14985;DHT22;7588;62.368;25.902;2023-07-24T09:33:44;16.80;99.90
14985;DHT22;7588;62.368;25.902;2023-07-24T09:36:10;16.90;99.90
14985;DHT22;7588;62.368;25.902;2023-07-24T09:38:37;17.10;99.90
14985;DHT22;7588;62.368;25.902;2023-07-24T09:41:03;17.00;99.90
14985;DHT22;7588;62.368;25.902;2023-07-24T09:43:30;17.10;99.90
14985;DHT22;7588;62.368;25.902;2023-07-24T09:45:56;17.20;99.90
14985;DHT22;7588;62.368;25.902;2023-07-24T09:48:26;17.30;99.90
14985;DHT22;7588;62.368;25.902;2023-07-24T09:50:54;17.20;99.90
14985;DHT22;7588;62.368;25.902;2023-07-24T09:53:45;17.40;99.90
14985;DHT22;7588;62.368;25.902;2023-07-24T09:56:14;17.50;99.90
14985;DHT22;7588;62.368;25.902;2023-07-24T09:58:44;17.60;99.90
14985;DHT22;7588;62.368;25.902;2023-07-24T10:01:10;17.60;99.90
14985;DHT22;7588;62.368;25.902;2023-07-24T10:03:46;17.60;99.90
14985;DHT22;7588;62.368;25.902;2023-07-24T10:06:12;17.70;99.90
14985;DHT22;7588;62.368;25.902;2023-07-24T10:08:40;17.60;99.90
14985;DHT22;7588;62.368;25.902;2023-07-24T10:11:11;17.60;99.90
14985;DHT22;7588;62.368;25.902;2023-07-24T10:13:37;17.60;99.90
14985;DHT22;7588;62.368;25.902;2023-07-24T10:16:03;17.40;99.90
14985;DHT22;7588;62.368;25.902;2023-07-24T10:18:33;17.20;99.90
14985;DHT22;7588;62.368;25.902;2023-07-24T10:21:03;17.10;99.90
14985;DHT22;7588;62.368;25.902;2023-07-24T10:23:29;16.90;99.90
14985;DHT22;7588;62.368;25.902;2023-07-24T10:25:55;16.60;99.90
14985;DHT22;7588;62.368;25.902;2023-07-24T10:28:33;16.60;99.90
14985;DHT22;7588;62.368;25.902;2023-07-24T10:31:01;16.50;99.90
14985;DHT22;7588;62.368;25.902;2023-07-24T10:33:30;16.60;99.90
14985;DHT22;7588;62.368;25.902;2023-07-24T10:36:05;16.70;99.90
14985;DHT22;7588;62.368;25.902;2023-07-24T10:38:36;16.70;99.90
14985;DHT22;7588;62.368;25.902;2023-07-24T10:41:03;16.70;99.90
14985;DHT22;7588;62.368;25.902;2023-07-24T10:43:49;16.70;99.90
14985;DHT22;7588;62.368;25.902;2023-07-24T10:46:19;16.60;99.90
14985;DHT22;7588;62.368;25.902;2023-07-24T10:48:48;16.50;99.90
14985;DHT22;7588;62.368;25.902;2023-07-24T10:51:14;16.50;99.90
14985;DHT22;7588;62.368;25.902;2023-07-24T10:53:48;16.50;99.90
14985;DHT22;7588;62.368;25.902;2023-07-24T10:56:15;16.40;99.90
14985;DHT22;7588;62.368;25.902;2023-07-24T10:58:41;16.30;99.90
14985;DHT22;7588;62.368;25.902;2023-07-24T11:01:08;16.40;99.90
14985;DHT22;7588;62.368;25.902;2023-07-24T11:03:41;16.40;99.90
14985;DHT22;7588;62.368;25.902;2023-07-24T11:06:15;16.40;99.90
14985;DHT22;7588;62.368;25.902;2023-07-24T11:08:41;16.40;99.90
14985;DHT22;7588;62.368;25.902;2023-07-24T11:11:08;16.40;99.90
14985;DHT22;7588;62.368;25.902;2023-07-24T11:13:34;16.30;99.90
14985;DHT22;7588;62.368;25.902;2023-07-24T11:16:08;16.30;99.90
14985;DHT22;7588;62.368;25.902;2023-07-24T11:18:47;16.10;99.90
14985;DHT22;7588;62.368;25.902;2023-07-24T11:21:14;16.00;99.90
14985;DHT22;7588;62.368;25.902;2023-07-24T11:23:49;16.00;99.90
14985;DHT22;7588;62.368;25.902;2023-07-24T11:26:15;16.00;99.90
14985;DHT22;7588;62.368;25.902;2023-07-24T11:28:41;16.00;99.90
14985;DHT22;7588;62.368;25.902;2023-07-24T11:31:07;15.90;99.90
14985;DHT22;7588;62.368;25.902;2023-07-24T11:33:33;15.70;99.90
14985;DHT22;7588;62.368;25.902;2023-07-24T11:35:59;15.70;99.90
14985;DHT22;7588;62.368;25.902;2023-07-24T11:38:25;15.70;99.90
14985;DHT22;7588;62.368;25.902;2023-07-24T11:40:54;15.80;99.90
14985;DHT22;7588;62.368;25.902;2023-07-24T11:43:22;15.80;99.90
14985;DHT22;7588;62.368;25.902;2023-07-24T11:45:49;15.80;99.90
14985;DHT22;7588;62.368;25.902;2023-07-24T11:48:19;15.80;99.90
14985;DHT22;7588;62.368;25.902;2023-07-24T11:50:55;15.80;99.90
14985;DHT22;7588;62.368;25.902;2023-07-24T11:53:31;15.90;99.90
14985;DHT22;7588;62.368;25.902;2023-07-24T11:55:58;16.00;99.90
14985;DHT22;7588;62.368;25.902;2023-07-24T11:58:29;16.00;99.90
14985;DHT22;7588;62.368;25.902;2023-07-24T12:00:55;16.00;99.90
14985;DHT22;7588;62.368;25.902;2023-07-24T12:03:24;16.10;99.90
14985;DHT22;7588;62.368;25.902;2023-07-24T12:05:50;16.00;99.90
14985;DHT22;7588;62.368;25.902;2023-07-24T12:08:17;16.00;99.90
14985;DHT22;7588;62.368;25.902;2023-07-24T12:10:45;16.00;99.90
14985;DHT22;7588;62.368;25.902;2023-07-24T12:13:11;15.90;99.90
14985;DHT22;7588;62.368;25.902;2023-07-24T12:15:37;16.00;99.90
14985;DHT22;7588;62.368;25.902;2023-07-24T12:18:04;16.00;99.90
14985;DHT22;7588;62.368;25.902;2023-07-24T12:20:30;16.00;99.90
14985;DHT22;7588;62.368;25.902;2023-07-24T12:22:57;16.10;99.90
14985;DHT22;7588;62.368;25.902;2023-07-24T12:25:23;16.20;99.90
14985;DHT22;7588;62.368;25.902;2023-07-24T12:27:49;16.20;99.90
14985;DHT22;7588;62.368;25.902;2023-07-24T12:30:14;16.30;99.90
14985;DHT22;7588;62.368;25.902;2023-07-24T12:32:40;16.40;99.90
14985;DHT22;7588;62.368;25.902;2023-07-24T12:35:07;16.40;99.90
14985;DHT22;7588;62.368;25.902;2023-07-24T12:37:33;16.40;99.90
14985;DHT22;7588;62.368;25.902;2023-07-24T12:39:59;16.50;99.90
14985;DHT22;7588;62.368;25.902;2023-07-24T12:42:25;16.50;99.90
14985;DHT22;7588;62.368;25.902;2023-07-24T12:44:52;16.50;99.90
14985;DHT22;7588;62.368;25.902;2023-07-24T12:47:18;16.50;99.90
14985;DHT22;7588;62.368;25.902;2023-07-24T12:49:44;16.50;99.90
14985;DHT22;7588;62.368;25.902;2023-07-24T12:52:10;16.50;99.90
14985;DHT22;7588;62.368;25.902;2023-07-24T12:54:36;16.50;99.90
14985;DHT22;7588;62.368;25.902;2023-07-24T12:57:02;16.40;99.90
14985;DHT22;7588;62.368;25.902;2023-07-24T12:59:29;16.40;99.90
14985;DHT22;7588;62.368;25.902;2023-07-24T13:01:54;16.50;99.90
14985;DHT22;7588;62.368;25.902;2023-07-24T13:04:21;16.60;99.90
14985;DHT22;7588;62.368;25.902;2023-07-24T13:06:47;16.50;99.90
14985;DHT22;7588;62.368;25.902;2023-07-24T13:09:13;16.60;99.90
14985;DHT22;7588;62.368;25.902;2023-07-24T13:11:38;16.60;99.90
14985;DHT22;7588;62.368;25.902;2023-07-24T13:14:04;16.60;99.90
14985;DHT22;7588;62.368;25.902;2023-07-24T13:16:30;16.50;99.90
14985;DHT22;7588;62.368;25.902;2023-07-24T13:18:56;16.50;99.90
14985;DHT22;7588;62.368;25.902;2023-07-24T13:21:21;16.40;99.90
14985;DHT22;7588;62.368;25.902;2023-07-24T13:23:47;16.30;99.90
14985;DHT22;7588;62.368;25.902;2023-07-24T13:26:13;16.20;99.90
14985;DHT22;7588;62.368;25.902;2023-07-24T13:28:40;16.20;99.90
14985;DHT22;7588;62.368;25.902;2023-07-24T13:33:39;16.20;99.90
14985;DHT22;7588;62.368;25.902;2023-07-24T13:36:05;16.20;99.90
14985;DHT22;7588;62.368;25.902;2023-07-24T13:38:30;16.20;99.90
14985;DHT22;7588;62.368;25.902;2023-07-24T13:40:58;16.10;99.90
14985;DHT22;7588;62.368;25.902;2023-07-24T13:43:23;16.10;99.90
14985;DHT22;7588;62.368;25.902;2023-07-24T13:45:49;16.10;99.90
14985;DHT22;7588;62.368;25.902;2023-07-24T13:48:15;16.00;99.90
14985;DHT22;7588;62.368;25.902;2023-07-24T13:50:40;16.00;99.90
14985;DHT22;7588;62.368;25.902;2023-07-24T13:53:06;16.00;99.90
14985;DHT22;7588;62.368;25.902;2023-07-24T13:55:32;16.00;99.90
14985;DHT22;7588;62.368;25.902;2023-07-24T13:57:57;16.00;99.90
14985;DHT22;7588;62.368;25.902;2023-07-24T14:00:23;16.00;99.90
14985;DHT22;7588;62.368;25.902;2023-07-24T14:02:49;16.00;99.90
14985;DHT22;7588;62.368;25.902;2023-07-24T14:05:16;16.10;99.90
14985;DHT22;7588;62.368;25.902;2023-07-24T14:07:42;16.10;99.90
14985;DHT22;7588;62.368;25.902;2023-07-24T14:10:08;16.10;99.90
14985;DHT22;7588;62.368;25.902;2023-07-24T14:12:34;16.20;99.90
14985;DHT22;7588;62.368;25.902;2023-07-24T14:15:00;16.20;99.90
14985;DHT22;7588;62.368;25.902;2023-07-24T14:17:25;16.20;99.90
14985;DHT22;7588;62.368;25.902;2023-07-24T14:19:51;16.20;99.90
14985;DHT22;7588;62.368;25.902;2023-07-24T14:22:17;16.20;99.90
14985;DHT22;7588;62.368;25.902;2023-07-24T14:24:42;16.30;99.90
14985;DHT22;7588;62.368;25.902;2023-07-24T14:27:08;16.40;99.90
14985;DHT22;7588;62.368;25.902;2023-07-24T14:29:34;16.50;99.90
14985;DHT22;7588;62.368;25.902;2023-07-24T14:31:59;16.60;99.90
14985;DHT22;7588;62.368;25.902;2023-07-24T14:34:25;16.60;99.90
14985;DHT22;7588;62.368;25.902;2023-07-24T14:36:51;16.70;99.90
14985;DHT22;7588;62.368;25.902;2023-07-24T14:39:18;16.70;99.90
14985;DHT22;7588;62.368;25.902;2023-07-24T14:41:43;16.80;99.90
14985;DHT22;7588;62.368;25.902;2023-07-24T14:44:09;16.80;99.90
14985;DHT22;7588;62.368;25.902;2023-07-24T14:46:36;16.80;99.90
14985;DHT22;7588;62.368;25.902;2023-07-24T14:49:01;16.90;99.90
14985;DHT22;7588;62.368;25.902;2023-07-24T14:51:27;16.90;99.90
14985;DHT22;7588;62.368;25.902;2023-07-24T14:53:53;16.90;99.90
14985;DHT22;7588;62.368;25.902;2023-07-24T14:56:19;16.90;99.90
14985;DHT22;7588;62.368;25.902;2023-07-24T14:58:46;17.00;99.90
14985;DHT22;7588;62.368;25.902;2023-07-24T15:01:12;17.10;99.90
14985;DHT22;7588;62.368;25.902;2023-07-24T15:03:38;17.20;99.90
14985;DHT22;7588;62.368;25.902;2023-07-24T15:06:03;17.20;99.90
14985;DHT22;7588;62.368;25.902;2023-07-24T15:08:32;17.20;99.90
14985;DHT22;7588;62.368;25.902;2023-07-24T15:10:58;17.20;99.90
14985;DHT22;7588;62.368;25.902;2023-07-24T15:13:24;17.20;99.90
14985;DHT22;7588;62.368;25.902;2023-07-24T15:15:50;17.20;99.90
14985;DHT22;7588;62.368;25.902;2023-07-24T15:18:15;17.30;99.90
14985;DHT22;7588;62.368;25.902;2023-07-24T15:20:41;17.20;99.90
14985;DHT22;7588;62.368;25.902;2023-07-24T15:23:07;17.30;99.90
14985;DHT22;7588;62.368;25.902;2023-07-24T15:25:32;17.20;99.90
14985;DHT22;7588;62.368;25.902;2023-07-24T15:27:59;17.20;99.90
14985;DHT22;7588;62.368;25.902;2023-07-24T15:30:25;17.10;99.90
14985;DHT22;7588;62.368;25.902;2023-07-24T15:32:50;17.10;99.90